Time,TemperatureF,DewpointF,PressureIn,WindDirection,WindDirectionDegrees,WindSpeedMPH,WindSpeedGustMPH,Humidity,HourlyPrecipIn,Conditions,Clouds,dailyrainin,SolarRadiationWatts/m^2,SoftwareType,DateUTC
2013-04-01 00:02:00,54.0,49.0,-100.00,SSE,152,2.0,8.0,84,0.00,,,0.02,0.000000,,2013-04-01 07:02:00,
2013-04-01 00:12:00,54.0,49.0,-100.00,SSE,152,2.0,8.0,84,0.00,,,0.02,0.000000,,2013-04-01 07:12:00,
2013-04-01 00:32:00,53.0,47.0,-100.00,North,358,3.0,9.0,81,0.00,,,-99.99,0.000000,,2013-04-01 07:32:00,
2013-04-01 00:43:00,53.0,47.0,-100.00,North,358,3.0,9.0,81,0.00,,,-99.99,0.000000,,2013-04-01 07:43:00,
2013-04-01 00:52:00,53.0,47.0,-100.00,North,358,3.0,9.0,81,0.00,,,-99.99,0.000000,,2013-04-01 07:52:00,
2013-04-01 01:02:00,53.0,47.0,-100.00,North,358,3.0,9.0,81,0.00,,,-99.99,0.000000,,2013-04-01 08:02:00,
2013-04-01 01:12:00,53.0,47.0,-100.00,North,358,3.0,9.0,81,0.00,,,-99.99,0.000000,,2013-04-01 08:12:00,
2013-04-01 01:32:00,52.0,48.0,-100.00,North,352,3.0,8.0,85,0.00,,,0.02,0.000000,,2013-04-01 08:32:00,
2013-04-01 01:43:00,52.0,48.0,-100.00,North,352,3.0,8.0,85,0.00,,,0.02,0.000000,,2013-04-01 08:43:00,
2013-04-01 01:53:00,52.0,48.0,-100.00,North,352,3.0,8.0,85,0.00,,,0.02,0.000000,,2013-04-01 08:53:00,
2013-04-01 02:02:00,52.0,48.0,-100.00,North,352,3.0,8.0,85,0.00,,,0.02,0.000000,,2013-04-01 09:02:00,
2013-04-01 02:12:00,52.0,48.0,-100.00,North,352,3.0,8.0,85,0.00,,,0.02,0.000000,,2013-04-01 09:12:00,
2013-04-01 02:43:00,51.0,47.0,-100.00,ENE,59,2.0,5.0,86,0.00,,,0.02,0.000000,,2013-04-01 09:43:00,
2013-04-01 02:53:00,51.0,47.0,-100.00,ENE,59,2.0,5.0,86,0.00,,,0.02,0.000000,,2013-04-01 09:53:00,
2013-04-01 03:03:00,51.0,47.0,-100.00,ENE,59,2.0,5.0,86,0.00,,,0.02,0.000000,,2013-04-01 10:03:00,
2013-04-01 03:12:00,51.0,47.0,-100.00,ENE,59,2.0,5.0,86,0.00,,,0.02,0.000000,,2013-04-01 10:12:00,
2013-04-01 03:34:00,50.0,45.0,-100.00,NE,45,2.0,5.0,82,0.00,,,0.02,0.000000,,2013-04-01 10:34:00,
2013-04-01 03:43:00,50.0,45.0,-100.00,NE,45,2.0,5.0,82,0.00,,,0.02,0.000000,,2013-04-01 10:43:00,
2013-04-01 03:53:00,50.0,45.0,-100.00,NE,45,2.0,5.0,82,0.00,,,0.02,0.000000,,2013-04-01 10:53:00,
2013-04-01 04:02:00,50.0,45.0,-100.00,NE,45,2.0,5.0,82,0.00,,,0.02,0.000000,,2013-04-01 11:02:00,
2013-04-01 04:11:00,50.0,45.0,-100.00,NE,45,2.0,5.0,82,0.00,,,0.02,0.000000,,2013-04-01 11:11:00,
2013-04-01 04:33:00,45.0,44.0,-100.00,ENE,67,5.0,7.0,97,0.00,,,0.02,0.000000,,2013-04-01 11:33:00,
2013-04-01 04:43:00,45.0,44.0,-100.00,ENE,67,5.0,7.0,97,0.00,,,0.02,0.000000,,2013-04-01 11:43:00,
2013-04-01 04:53:00,45.0,44.0,-100.00,ENE,67,5.0,7.0,97,0.00,,,0.02,0.000000,,2013-04-01 11:53:00,
2013-04-01 05:02:00,45.0,44.0,-100.00,ENE,67,5.0,7.0,97,0.00,,,0.02,0.000000,,2013-04-01 12:02:00,
2013-04-01 05:12:00,45.0,44.0,-100.00,ENE,67,5.0,7.0,97,0.00,,,0.02,0.000000,,2013-04-01 12:12:00,
2013-04-01 05:43:00,44.0,44.0,-100.00,ENE,71,3.0,8.0,100,0.00,,,-99.99,0.000000,,2013-04-01 12:43:00,
2013-04-01 05:53:00,44.0,44.0,-100.00,ENE,71,3.0,8.0,100,0.00,,,-99.99,0.000000,,2013-04-01 12:53:00,
2013-04-01 06:02:00,44.0,44.0,-100.00,ENE,71,3.0,8.0,100,0.00,,,-99.99,0.000000,,2013-04-01 13:02:00,
2013-04-01 06:12:00,44.0,44.0,-100.00,ENE,71,3.0,8.0,100,0.00,,,-99.99,0.000000,,2013-04-01 13:12:00,
2013-04-01 06:43:00,46.0,45.0,-100.00,ENE,65,5.0,8.0,97,0.00,,,-99.99,0.000000,,2013-04-01 13:43:00,
2013-04-01 06:52:00,46.0,45.0,-100.00,ENE,65,5.0,8.0,97,0.00,,,-99.99,0.000000,,2013-04-01 13:52:00,
2013-04-01 07:03:00,46.0,45.0,-100.00,ENE,65,5.0,8.0,97,0.00,,,-99.99,0.000000,,2013-04-01 14:03:00,
2013-04-01 07:12:00,46.0,45.0,-100.00,ENE,65,5.0,8.0,97,0.00,,,-99.99,0.000000,,2013-04-01 14:12:00,
2013-04-01 07:42:00,48.0,47.0,-100.00,ESE,109,0.0,5.0,95,0.00,,,0.00,6.000000,,2013-04-01 14:42:00,
2013-04-01 07:53:00,48.0,47.0,-100.00,ESE,109,0.0,5.0,95,0.00,,,0.00,6.000000,,2013-04-01 14:53:00,
2013-04-01 08:02:00,48.0,47.0,-100.00,ESE,109,0.0,5.0,95,0.00,,,0.00,6.000000,,2013-04-01 15:02:00,
2013-04-01 08:12:00,48.0,47.0,-100.00,ESE,109,0.0,5.0,95,0.00,,,0.00,6.000000,,2013-04-01 15:12:00,
2013-04-01 08:43:00,52.0,49.0,-100.00,NE,50,3.0,4.0,91,0.00,,,0.00,42.000000,,2013-04-01 15:43:00,
2013-04-01 08:53:00,52.0,49.0,-100.00,NE,50,3.0,4.0,91,0.00,,,0.00,42.000000,,2013-04-01 15:53:00,
2013-04-01 09:02:00,52.0,49.0,-100.00,NE,50,3.0,4.0,91,0.00,,,0.00,42.000000,,2013-04-01 16:02:00,
2013-04-01 09:12:00,52.0,49.0,-100.00,NE,50,3.0,4.0,91,0.00,,,0.00,42.000000,,2013-04-01 16:12:00,
2013-04-01 10:32:00,55.0,48.0,-100.00,WSW,258,3.0,5.0,76,-99.99,,,0.00,178.000000,,2013-04-01 17:32:00,
2013-04-01 10:42:00,55.0,48.0,-100.00,WSW,258,3.0,5.0,76,-99.99,,,0.00,178.000000,,2013-04-01 17:42:00,
2013-04-01 10:53:00,55.0,48.0,-100.00,WSW,258,3.0,5.0,76,-99.99,,,0.00,178.000000,,2013-04-01 17:53:00,
2013-04-01 11:02:00,55.0,48.0,-100.00,WSW,258,3.0,5.0,76,-99.99,,,0.00,178.000000,,2013-04-01 18:02:00,
2013-04-01 11:11:00,55.0,48.0,-100.00,WSW,258,3.0,5.0,76,-99.99,,,0.00,178.000000,,2013-04-01 18:11:00,
2013-04-01 11:43:00,60.0,49.0,-100.00,West,259,4.0,13.0,67,0.00,,,0.00,444.000000,,2013-04-01 18:43:00,
2013-04-01 11:53:00,60.0,49.0,-100.00,West,259,4.0,13.0,67,0.00,,,0.00,444.000000,,2013-04-01 18:53:00,
2013-04-01 12:03:00,60.0,49.0,-100.00,West,259,4.0,13.0,67,0.00,,,0.00,444.000000,,2013-04-01 19:03:00,
2013-04-01 12:12:00,60.0,49.0,-100.00,West,259,4.0,13.0,67,0.00,,,0.00,444.000000,,2013-04-01 19:12:00,
2013-04-01 12:43:00,63.0,46.0,-100.00,WSW,239,4.0,9.0,53,0.00,,,-99.99,641.000000,,2013-04-01 19:43:00,
2013-04-01 12:53:00,63.0,46.0,-100.00,WSW,239,4.0,9.0,53,0.00,,,-99.99,641.000000,,2013-04-01 19:53:00,
2013-04-01 13:02:00,63.0,46.0,-100.00,WSW,239,4.0,9.0,53,0.00,,,-99.99,641.000000,,2013-04-01 20:02:00,
2013-04-01 13:12:00,63.0,46.0,-100.00,WSW,239,4.0,9.0,53,0.00,,,-99.99,641.000000,,2013-04-01 20:12:00,
2013-04-01 13:43:00,63.0,42.0,-100.00,NNE,15,4.0,10.0,46,0.00,,,0.00,636.000000,,2013-04-01 20:43:00,
2013-04-01 13:52:00,63.0,42.0,-100.00,NNE,15,4.0,10.0,46,0.00,,,0.00,636.000000,,2013-04-01 20:52:00,
2013-04-01 14:02:00,63.0,42.0,-100.00,NNE,15,4.0,10.0,46,0.00,,,0.00,636.000000,,2013-04-01 21:02:00,
2013-04-01 14:11:00,63.0,42.0,-100.00,NNE,15,4.0,10.0,46,0.00,,,0.00,636.000000,,2013-04-01 21:11:00,
2013-04-01 14:43:00,62.0,43.0,-100.00,NE,40,4.0,9.0,49,0.00,,,0.00,491.000000,,2013-04-01 21:43:00,
2013-04-01 14:53:00,62.0,43.0,-100.00,NE,40,4.0,9.0,49,0.00,,,0.00,491.000000,,2013-04-01 21:53:00,
2013-04-01 15:02:00,62.0,43.0,-100.00,NE,40,4.0,9.0,49,0.00,,,0.00,491.000000,,2013-04-01 22:02:00,
2013-04-01 15:12:00,62.0,43.0,-100.00,NE,40,4.0,9.0,49,0.00,,,0.00,491.000000,,2013-04-01 22:12:00,
2013-04-01 15:33:00,64.0,41.0,-100.00,West,268,4.0,14.0,43,0.00,,,0.00,561.000000,,2013-04-01 22:33:00,
2013-04-01 15:43:00,64.0,41.0,-100.00,West,268,4.0,14.0,43,0.00,,,0.00,561.000000,,2013-04-01 22:43:00,
2013-04-01 15:52:00,64.0,41.0,-100.00,West,268,4.0,14.0,43,0.00,,,0.00,561.000000,,2013-04-01 22:52:00,
2013-04-01 16:02:00,64.0,41.0,-100.00,West,268,4.0,14.0,43,0.00,,,0.00,561.000000,,2013-04-01 23:02:00,
2013-04-01 16:11:00,64.0,41.0,-100.00,West,268,4.0,14.0,43,0.00,,,0.00,561.000000,,2013-04-01 23:11:00,
2013-04-01 16:43:00,69.0,43.0,-100.00,WSW,255,5.0,11.0,39,0.00,,,0.00,655.000000,,2013-04-01 23:43:00,
2013-04-01 16:53:00,69.0,43.0,-100.00,WSW,255,5.0,11.0,39,0.00,,,0.00,655.000000,,2013-04-01 23:53:00,
2013-04-01 17:02:00,69.0,43.0,-100.00,WSW,255,5.0,11.0,39,0.00,,,0.00,655.000000,,2013-04-02 00:02:00,
2013-04-01 17:11:00,69.0,43.0,-100.00,WSW,255,5.0,11.0,39,0.00,,,0.00,655.000000,,2013-04-02 00:11:00,
2013-04-01 17:33:00,67.0,40.0,-100.00,West,270,5.0,10.0,37,0.00,,,0.00,500.000000,,2013-04-02 00:33:00,
2013-04-01 17:43:00,67.0,40.0,-100.00,West,270,5.0,10.0,37,0.00,,,0.00,500.000000,,2013-04-02 00:43:00,
2013-04-01 17:53:00,67.0,40.0,-100.00,West,270,5.0,10.0,37,0.00,,,0.00,500.000000,,2013-04-02 00:53:00,
2013-04-01 18:02:00,67.0,40.0,-100.00,West,270,5.0,10.0,37,0.00,,,0.00,500.000000,,2013-04-02 01:02:00,
2013-04-01 18:11:00,67.0,40.0,-100.00,West,270,5.0,10.0,37,0.00,,,0.00,500.000000,,2013-04-02 01:11:00,
2013-04-01 18:43:00,66.0,40.0,-100.00,SW,228,3.0,11.0,38,0.00,,,0.00,255.000000,,2013-04-02 01:43:00,
2013-04-01 18:53:00,66.0,40.0,-100.00,SW,228,3.0,11.0,38,0.00,,,0.00,255.000000,,2013-04-02 01:53:00,
2013-04-01 19:02:00,66.0,40.0,-100.00,SW,228,3.0,11.0,38,0.00,,,0.00,255.000000,,2013-04-02 02:02:00,
2013-04-01 19:12:00,66.0,40.0,-100.00,SW,228,3.0,11.0,38,0.00,,,0.00,255.000000,,2013-04-02 02:12:00,
2013-04-01 19:42:00,60.0,39.0,-100.00,South,188,1.0,8.0,45,0.00,,,0.00,60.000000,,2013-04-02 02:42:00,
2013-04-01 19:53:00,60.0,39.0,-100.00,South,188,1.0,8.0,45,0.00,,,0.00,60.000000,,2013-04-02 02:53:00,
2013-04-01 20:02:00,60.0,39.0,-100.00,South,188,1.0,8.0,45,0.00,,,0.00,60.000000,,2013-04-02 03:02:00,
2013-04-01 20:12:00,60.0,39.0,-100.00,South,188,1.0,8.0,45,0.00,,,0.00,60.000000,,2013-04-02 03:12:00,
2013-04-01 20:33:00,55.0,40.0,-100.00,NE,47,4.0,6.0,57,0.00,,,0.00,1.000000,,2013-04-02 03:33:00,
2013-04-01 20:43:00,55.0,40.0,-100.00,NE,47,4.0,6.0,57,0.00,,,0.00,1.000000,,2013-04-02 03:43:00,
2013-04-01 20:53:00,55.0,40.0,-100.00,NE,47,4.0,6.0,57,0.00,,,0.00,1.000000,,2013-04-02 03:53:00,
2013-04-01 21:02:00,55.0,40.0,-100.00,NE,47,4.0,6.0,57,0.00,,,0.00,1.000000,,2013-04-02 04:02:00,
2013-04-01 21:12:00,55.0,40.0,-100.00,NE,47,4.0,6.0,57,0.00,,,0.00,1.000000,,2013-04-02 04:12:00,
2013-04-01 21:43:00,54.0,43.0,-100.00,NE,39,6.0,8.0,67,0.00,,,0.00,0.000000,,2013-04-02 04:43:00,
2013-04-01 21:53:00,54.0,43.0,-100.00,NE,39,6.0,8.0,67,0.00,,,0.00,0.000000,,2013-04-02 04:53:00,
2013-04-01 22:02:00,54.0,43.0,-100.00,NE,39,6.0,8.0,67,0.00,,,0.00,0.000000,,2013-04-02 05:02:00,
2013-04-01 22:12:00,54.0,43.0,-100.00,NE,39,6.0,8.0,67,0.00,,,0.00,0.000000,,2013-04-02 05:12:00,
2013-04-01 22:43:00,51.0,44.0,-100.00,ENE,59,3.0,8.0,76,0.00,,,0.00,0.000000,,2013-04-02 05:43:00,
2013-04-01 22:52:00,51.0,44.0,-100.00,ENE,59,3.0,8.0,76,0.00,,,0.00,0.000000,,2013-04-02 05:52:00,
2013-04-01 23:02:00,51.0,44.0,-100.00,ENE,59,3.0,8.0,76,0.00,,,0.00,0.000000,,2013-04-02 06:02:00,
2013-04-01 23:12:00,51.0,44.0,-100.00,ENE,59,3.0,8.0,76,0.00,,,0.00,0.000000,,2013-04-02 06:12:00,
2013-04-01 23:32:00,50.0,44.0,-100.00,NE,41,3.0,6.0,80,0.00,,,0.00,0.000000,,2013-04-02 06:32:00,
2013-04-01 23:42:00,50.0,44.0,-100.00,NE,41,3.0,6.0,80,0.00,,,0.00,0.000000,,2013-04-02 06:42:00,
2013-04-01 23:52:00,50.0,44.0,-100.00,NE,41,3.0,6.0,80,0.00,,,0.00,0.000000,,2013-04-02 06:52:00,